sensor_id;sensor_type;location;lat;lon;timestamp;temperature;humidity
39045;DHT22;52192;52.002;5.956;2023-07-13T00:01:31;19.00;69.80
39045;DHT22;52192;52.002;5.956;2023-07-13T00:03:57;19.00;69.80
39045;DHT22;52192;52.002;5.956;2023-07-13T00:06:23;19.00;69.40
39045;DHT22;52192;52.002;5.956;2023-07-13T00:08:49;19.00;69.40
39045;DHT22;52192;52.002;5.956;2023-07-13T00:11:16;19.00;69.30
39045;DHT22;52192;52.002;5.956;2023-07-13T00:13:43;19.10;69.20
39045;DHT22;52192;52.002;5.956;2023-07-13T00:16:10;19.10;69.20
39045;DHT22;52192;52.002;5.956;2023-07-13T00:18:37;19.10;69.10
39045;DHT22;52192;52.002;5.956;2023-07-13T00:21:03;19.10;69.00
39045;DHT22;52192;52.002;5.956;2023-07-13T00:23:37;19.20;69.00
39045;DHT22;52192;52.002;5.956;2023-07-13T00:26:04;19.20;68.90
39045;DHT22;52192;52.002;5.956;2023-07-13T00:28:32;19.20;68.50
39045;DHT22;52192;52.002;5.956;2023-07-13T00:30:58;19.30;68.60
39045;DHT22;52192;52.002;5.956;2023-07-13T00:33:24;19.30;68.40
39045;DHT22;52192;52.002;5.956;2023-07-13T00:35:50;19.30;68.30
39045;DHT22;52192;52.002;5.956;2023-07-13T00:38:16;19.30;68.30
39045;DHT22;52192;52.002;5.956;2023-07-13T00:40:42;19.30;68.10
39045;DHT22;52192;52.002;5.956;2023-07-13T00:43:15;19.30;68.00
39045;DHT22;52192;52.002;5.956;2023-07-13T00:48:34;19.20;68.00
39045;DHT22;52192;52.002;5.956;2023-07-13T00:51:01;19.20;67.80
39045;DHT22;52192;52.002;5.956;2023-07-13T00:53:29;19.20;68.00
39045;DHT22;52192;52.002;5.956;2023-07-13T00:55:57;19.20;68.10
39045;DHT22;52192;52.002;5.956;2023-07-13T00:58:25;19.20;68.00
39045;DHT22;52192;52.002;5.956;2023-07-13T01:00:52;19.20;68.00
39045;DHT22;52192;52.002;5.956;2023-07-13T01:03:19;19.20;68.00
39045;DHT22;52192;52.002;5.956;2023-07-13T01:05:47;19.20;68.00
39045;DHT22;52192;52.002;5.956;2023-07-13T01:08:13;19.20;67.90
39045;DHT22;52192;52.002;5.956;2023-07-13T01:10:39;19.10;68.10
39045;DHT22;52192;52.002;5.956;2023-07-13T01:13:07;19.10;68.20
39045;DHT22;52192;52.002;5.956;2023-07-13T01:18:05;19.10;68.40
39045;DHT22;52192;52.002;5.956;2023-07-13T01:20:31;19.00;68.50
39045;DHT22;52192;52.002;5.956;2023-07-13T01:23:07;19.00;68.50
39045;DHT22;52192;52.002;5.956;2023-07-13T01:25:35;18.90;69.10
39045;DHT22;52192;52.002;5.956;2023-07-13T01:28:02;18.90;68.60
39045;DHT22;52192;52.002;5.956;2023-07-13T01:30:28;18.90;68.60
39045;DHT22;52192;52.002;5.956;2023-07-13T01:32:54;18.90;68.50
39045;DHT22;52192;52.002;5.956;2023-07-13T01:35:20;18.80;68.40
39045;DHT22;52192;52.002;5.956;2023-07-13T01:37:46;18.80;68.40
39045;DHT22;52192;52.002;5.956;2023-07-13T01:40:12;18.80;68.50
39045;DHT22;52192;52.002;5.956;2023-07-13T01:42:38;18.80;68.50
39045;DHT22;52192;52.002;5.956;2023-07-13T01:45:04;18.80;68.40
39045;DHT22;52192;52.002;5.956;2023-07-13T01:47:31;18.80;68.60
39045;DHT22;52192;52.002;5.956;2023-07-13T01:49:57;18.80;68.70
39045;DHT22;52192;52.002;5.956;2023-07-13T01:52:23;18.80;68.80
39045;DHT22;52192;52.002;5.956;2023-07-13T01:54:49;18.70;69.00
39045;DHT22;52192;52.002;5.956;2023-07-13T01:57:14;18.70;69.00
39045;DHT22;52192;52.002;5.956;2023-07-13T01:59:40;18.70;69.00
39045;DHT22;52192;52.002;5.956;2023-07-13T02:02:06;18.70;69.00
39045;DHT22;52192;52.002;5.956;2023-07-13T02:04:32;18.70;69.10
39045;DHT22;52192;52.002;5.956;2023-07-13T02:06:57;18.70;69.10
39045;DHT22;52192;52.002;5.956;2023-07-13T02:09:23;18.70;69.00
39045;DHT22;52192;52.002;5.956;2023-07-13T02:11:49;18.60;68.90
39045;DHT22;52192;52.002;5.956;2023-07-13T02:14:14;18.60;69.10
39045;DHT22;52192;52.002;5.956;2023-07-13T02:16:41;18.60;69.10
39045;DHT22;52192;52.002;5.956;2023-07-13T02:19:07;18.60;69.10
39045;DHT22;52192;52.002;5.956;2023-07-13T02:21:33;18.60;69.00
39045;DHT22;52192;52.002;5.956;2023-07-13T02:23:59;18.50;69.00
39045;DHT22;52192;52.002;5.956;2023-07-13T02:26:26;18.60;69.20
39045;DHT22;52192;52.002;5.956;2023-07-13T02:28:52;18.60;69.30
39045;DHT22;52192;52.002;5.956;2023-07-13T02:31:17;18.50;69.30
39045;DHT22;52192;52.002;5.956;2023-07-13T02:33:43;18.50;70.00
39045;DHT22;52192;52.002;5.956;2023-07-13T02:36:10;18.40;69.50
39045;DHT22;52192;52.002;5.956;2023-07-13T02:38:36;18.30;69.60
39045;DHT22;52192;52.002;5.956;2023-07-13T02:41:07;18.30;69.90
39045;DHT22;52192;52.002;5.956;2023-07-13T02:43:33;18.30;69.90
39045;DHT22;52192;52.002;5.956;2023-07-13T02:45:59;18.30;69.90
39045;DHT22;52192;52.002;5.956;2023-07-13T02:48:30;18.20;70.00
39045;DHT22;52192;52.002;5.956;2023-07-13T02:50:55;18.20;70.20
39045;DHT22;52192;52.002;5.956;2023-07-13T02:53:21;18.20;70.40
39045;DHT22;52192;52.002;5.956;2023-07-13T02:55:46;18.20;70.50
39045;DHT22;52192;52.002;5.956;2023-07-13T02:58:13;18.20;70.40
39045;DHT22;52192;52.002;5.956;2023-07-13T03:00:45;18.20;70.50
39045;DHT22;52192;52.002;5.956;2023-07-13T03:03:12;18.20;70.60
39045;DHT22;52192;52.002;5.956;2023-07-13T03:05:42;18.10;70.60
39045;DHT22;52192;52.002;5.956;2023-07-13T03:08:10;18.10;70.70
39045;DHT22;52192;52.002;5.956;2023-07-13T03:10:36;18.10;70.70
39045;DHT22;52192;52.002;5.956;2023-07-13T03:13:03;18.10;70.70
39045;DHT22;52192;52.002;5.956;2023-07-13T03:15:28;18.10;70.80
39045;DHT22;52192;52.002;5.956;2023-07-13T03:17:54;18.00;70.90
39045;DHT22;52192;52.002;5.956;2023-07-13T03:20:20;18.00;71.00
39045;DHT22;52192;52.002;5.956;2023-07-13T03:22:46;18.00;71.30
39045;DHT22;52192;52.002;5.956;2023-07-13T03:25:12;18.00;71.50
39045;DHT22;52192;52.002;5.956;2023-07-13T03:27:38;17.90;71.60
39045;DHT22;52192;52.002;5.956;2023-07-13T03:30:05;17.90;71.70
39045;DHT22;52192;52.002;5.956;2023-07-13T03:32:31;17.90;71.90
39045;DHT22;52192;52.002;5.956;2023-07-13T03:34:56;17.80;72.00
39045;DHT22;52192;52.002;5.956;2023-07-13T03:37:22;17.80;72.00
39045;DHT22;52192;52.002;5.956;2023-07-13T03:39:48;17.80;72.10
39045;DHT22;52192;52.002;5.956;2023-07-13T03:42:14;17.80;71.90
39045;DHT22;52192;52.002;5.956;2023-07-13T03:44:40;17.90;71.90
39045;DHT22;52192;52.002;5.956;2023-07-13T03:47:06;17.90;72.00
39045;DHT22;52192;52.002;5.956;2023-07-13T03:49:34;17.90;72.10
39045;DHT22;52192;52.002;5.956;2023-07-13T03:52:00;17.80;72.30
39045;DHT22;52192;52.002;5.956;2023-07-13T03:54:26;17.80;72.50
39045;DHT22;52192;52.002;5.956;2023-07-13T03:56:52;17.80;72.50
39045;DHT22;52192;52.002;5.956;2023-07-13T03:59:17;17.70;72.90
39045;DHT22;52192;52.002;5.956;2023-07-13T04:01:44;17.80;72.90
39045;DHT22;52192;52.002;5.956;2023-07-13T04:04:10;17.80;72.90
39045;DHT22;52192;52.002;5.956;2023-07-13T04:06:36;17.70;73.00
39045;DHT22;52192;52.002;5.956;2023-07-13T04:09:03;17.70;73.10
39045;DHT22;52192;52.002;5.956;2023-07-13T04:11:32;17.70;73.20
39045;DHT22;52192;52.002;5.956;2023-07-13T04:13:59;17.70;73.20
39045;DHT22;52192;52.002;5.956;2023-07-13T04:16:25;17.70;73.10
39045;DHT22;52192;52.002;5.956;2023-07-13T04:18:55;17.80;73.20
39045;DHT22;52192;52.002;5.956;2023-07-13T04:21:28;17.80;73.20
39045;DHT22;52192;52.002;5.956;2023-07-13T04:23:55;17.80;73.40
39045;DHT22;52192;52.002;5.956;2023-07-13T04:26:21;17.70;73.50
39045;DHT22;52192;52.002;5.956;2023-07-13T04:28:48;17.70;73.60
39045;DHT22;52192;52.002;5.956;2023-07-13T04:31:14;17.70;73.60
39045;DHT22;52192;52.002;5.956;2023-07-13T04:33:40;17.80;73.70
39045;DHT22;52192;52.002;5.956;2023-07-13T04:36:05;17.80;73.60
39045;DHT22;52192;52.002;5.956;2023-07-13T04:38:32;17.90;73.60
39045;DHT22;52192;52.002;5.956;2023-07-13T04:41:00;17.90;73.50
39045;DHT22;52192;52.002;5.956;2023-07-13T04:43:28;18.00;73.30
39045;DHT22;52192;52.002;5.956;2023-07-13T04:45:54;18.00;73.60
39045;DHT22;52192;52.002;5.956;2023-07-13T04:48:20;17.90;73.80
39045;DHT22;52192;52.002;5.956;2023-07-13T04:50:47;17.90;74.10
39045;DHT22;52192;52.002;5.956;2023-07-13T04:53:13;17.90;74.10
39045;DHT22;52192;52.002;5.956;2023-07-13T04:55:39;17.90;73.90
39045;DHT22;52192;52.002;5.956;2023-07-13T04:58:06;18.00;74.20
39045;DHT22;52192;52.002;5.956;2023-07-13T05:00:32;18.00;74.40
39045;DHT22;52192;52.002;5.956;2023-07-13T05:02:58;17.90;74.80
39045;DHT22;52192;52.002;5.956;2023-07-13T05:05:25;17.90;75.00
39045;DHT22;52192;52.002;5.956;2023-07-13T05:07:51;17.90;75.10
39045;DHT22;52192;52.002;5.956;2023-07-13T05:10:17;17.90;75.20
39045;DHT22;52192;52.002;5.956;2023-07-13T05:12:43;18.00;75.00
39045;DHT22;52192;52.002;5.956;2023-07-13T05:15:09;18.00;75.00
39045;DHT22;52192;52.002;5.956;2023-07-13T05:17:35;18.00;75.00
39045;DHT22;52192;52.002;5.956;2023-07-13T05:20:01;18.10;74.90
39045;DHT22;52192;52.002;5.956;2023-07-13T05:22:26;18.20;74.70
39045;DHT22;52192;52.002;5.956;2023-07-13T05:24:52;18.20;74.50
39045;DHT22;52192;52.002;5.956;2023-07-13T05:27:18;18.30;74.60
39045;DHT22;52192;52.002;5.956;2023-07-13T05:29:43;18.30;74.60
39045;DHT22;52192;52.002;5.956;2023-07-13T05:32:09;18.30;74.50
39045;DHT22;52192;52.002;5.956;2023-07-13T05:34:35;18.40;74.40
39045;DHT22;52192;52.002;5.956;2023-07-13T05:37:01;18.40;74.30
39045;DHT22;52192;52.002;5.956;2023-07-13T05:39:27;18.50;74.20
39045;DHT22;52192;52.002;5.956;2023-07-13T05:41:53;18.50;74.30
39045;DHT22;52192;52.002;5.956;2023-07-13T05:44:18;18.40;74.40
39045;DHT22;52192;52.002;5.956;2023-07-13T05:46:45;18.50;74.50
39045;DHT22;52192;52.002;5.956;2023-07-13T05:49:11;18.50;74.50
39045;DHT22;52192;52.002;5.956;2023-07-13T05:51:37;18.60;74.70
39045;DHT22;52192;52.002;5.956;2023-07-13T05:54:02;18.60;74.50
39045;DHT22;52192;52.002;5.956;2023-07-13T05:56:28;18.70;74.40
39045;DHT22;52192;52.002;5.956;2023-07-13T05:58:54;18.80;74.30
39045;DHT22;52192;52.002;5.956;2023-07-13T06:01:20;18.80;74.30
39045;DHT22;52192;52.002;5.956;2023-07-13T06:03:46;18.80;74.30
39045;DHT22;52192;52.002;5.956;2023-07-13T06:06:13;18.80;74.40
39045;DHT22;52192;52.002;5.956;2023-07-13T06:08:39;18.80;74.40
39045;DHT22;52192;52.002;5.956;2023-07-13T06:11:07;18.90;74.40
39045;DHT22;52192;52.002;5.956;2023-07-13T06:13:35;19.00;74.30
39045;DHT22;52192;52.002;5.956;2023-07-13T06:16:01;19.00;74.60
39045;DHT22;52192;52.002;5.956;2023-07-13T06:18:30;19.00;74.80
39045;DHT22;52192;52.002;5.956;2023-07-13T06:20:56;19.00;74.80
39045;DHT22;52192;52.002;5.956;2023-07-13T06:23:23;19.10;74.90
39045;DHT22;52192;52.002;5.956;2023-07-13T06:25:49;19.20;74.80
39045;DHT22;52192;52.002;5.956;2023-07-13T06:28:14;19.10;74.70
39045;DHT22;52192;52.002;5.956;2023-07-13T06:30:40;19.20;74.80
39045;DHT22;52192;52.002;5.956;2023-07-13T06:33:06;19.20;74.70
39045;DHT22;52192;52.002;5.956;2023-07-13T06:35:32;19.30;74.60
39045;DHT22;52192;52.002;5.956;2023-07-13T06:37:57;19.30;74.40
39045;DHT22;52192;52.002;5.956;2023-07-13T06:40:23;19.40;74.40
39045;DHT22;52192;52.002;5.956;2023-07-13T06:42:49;19.30;74.40
39045;DHT22;52192;52.002;5.956;2023-07-13T06:45:14;19.40;74.60
39045;DHT22;52192;52.002;5.956;2023-07-13T06:47:40;19.30;74.90
39045;DHT22;52192;52.002;5.956;2023-07-13T06:50:07;19.20;75.00
39045;DHT22;52192;52.002;5.956;2023-07-13T06:52:33;19.30;75.00
39045;DHT22;52192;52.002;5.956;2023-07-13T06:54:58;19.40;74.90
39045;DHT22;52192;52.002;5.956;2023-07-13T06:57:24;19.50;75.00
39045;DHT22;52192;52.002;5.956;2023-07-13T06:59:50;19.50;75.00
39045;DHT22;52192;52.002;5.956;2023-07-13T07:02:16;19.50;75.00
39045;DHT22;52192;52.002;5.956;2023-07-13T07:04:41;19.60;74.70
39045;DHT22;52192;52.002;5.956;2023-07-13T07:07:07;19.80;74.30
39045;DHT22;52192;52.002;5.956;2023-07-13T07:09:32;20.00;74.00
39045;DHT22;52192;52.002;5.956;2023-07-13T07:11:58;20.10;73.80
39045;DHT22;52192;52.002;5.956;2023-07-13T07:14:24;20.00;73.90
39045;DHT22;52192;52.002;5.956;2023-07-13T07:16:50;20.10;73.90
39045;DHT22;52192;52.002;5.956;2023-07-13T07:19:16;20.10;73.90
39045;DHT22;52192;52.002;5.956;2023-07-13T07:21:41;20.00;74.70
39045;DHT22;52192;52.002;5.956;2023-07-13T07:24:07;20.00;74.20
39045;DHT22;52192;52.002;5.956;2023-07-13T07:26:33;20.10;74.20
39045;DHT22;52192;52.002;5.956;2023-07-13T07:28:59;20.20;74.10
39045;DHT22;52192;52.002;5.956;2023-07-13T07:31:25;20.20;74.00
39045;DHT22;52192;52.002;5.956;2023-07-13T07:33:50;20.30;73.70
39045;DHT22;52192;52.002;5.956;2023-07-13T07:36:16;20.20;73.50
39045;DHT22;52192;52.002;5.956;2023-07-13T07:38:43;20.20;73.60
39045;DHT22;52192;52.002;5.956;2023-07-13T07:41:09;20.30;73.70
39045;DHT22;52192;52.002;5.956;2023-07-13T07:43:35;20.30;73.60
39045;DHT22;52192;52.002;5.956;2023-07-13T07:46:00;20.40;73.40
39045;DHT22;52192;52.002;5.956;2023-07-13T07:48:26;20.40;73.30
39045;DHT22;52192;52.002;5.956;2023-07-13T07:50:52;20.40;73.30
39045;DHT22;52192;52.002;5.956;2023-07-13T07:53:18;20.40;73.30
39045;DHT22;52192;52.002;5.956;2023-07-13T07:55:43;20.50;73.40
39045;DHT22;52192;52.002;5.956;2023-07-13T07:58:09;20.70;72.90
39045;DHT22;52192;52.002;5.956;2023-07-13T08:00:35;20.70;72.60
39045;DHT22;52192;52.002;5.956;2023-07-13T08:03:00;20.80;72.40
39045;DHT22;52192;52.002;5.956;2023-07-13T08:05:26;20.80;72.40
39045;DHT22;52192;52.002;5.956;2023-07-13T08:07:52;20.80;72.90
39045;DHT22;52192;52.002;5.956;2023-07-13T08:10:18;20.90;72.40
39045;DHT22;52192;52.002;5.956;2023-07-13T08:12:44;20.90;72.20
39045;DHT22;52192;52.002;5.956;2023-07-13T08:15:12;21.00;72.00
39045;DHT22;52192;52.002;5.956;2023-07-13T08:17:38;21.10;71.90
39045;DHT22;52192;52.002;5.956;2023-07-13T08:20:04;21.20;71.60
39045;DHT22;52192;52.002;5.956;2023-07-13T08:22:30;21.30;71.30
39045;DHT22;52192;52.002;5.956;2023-07-13T08:24:56;21.40;71.20
39045;DHT22;52192;52.002;5.956;2023-07-13T08:27:23;21.40;70.70
39045;DHT22;52192;52.002;5.956;2023-07-13T08:29:49;21.50;70.30
39045;DHT22;52192;52.002;5.956;2023-07-13T08:32:15;21.60;70.40
39045;DHT22;52192;52.002;5.956;2023-07-13T08:34:40;21.60;70.00
39045;DHT22;52192;52.002;5.956;2023-07-13T08:37:07;21.60;69.60
39045;DHT22;52192;52.002;5.956;2023-07-13T08:39:33;21.60;69.70
39045;DHT22;52192;52.002;5.956;2023-07-13T08:42:07;21.70;69.70
39045;DHT22;52192;52.002;5.956;2023-07-13T08:47:02;21.80;69.00
39045;DHT22;52192;52.002;5.956;2023-07-13T08:49:28;22.10;68.60
39045;DHT22;52192;52.002;5.956;2023-07-13T08:52:10;22.10;67.80
39045;DHT22;52192;52.002;5.956;2023-07-13T08:54:41;22.00;67.30
39045;DHT22;52192;52.002;5.956;2023-07-13T08:57:17;21.80;67.80
39045;DHT22;52192;52.002;5.956;2023-07-13T08:59:44;21.70;67.90
39045;DHT22;52192;52.002;5.956;2023-07-13T09:05:22;21.40;69.60
39045;DHT22;52192;52.002;5.956;2023-07-13T09:10:44;21.20;70.90
39045;DHT22;52192;52.002;5.956;2023-07-13T09:15:49;21.00;71.00
39045;DHT22;52192;52.002;5.956;2023-07-13T09:19:02;21.10;70.60
39045;DHT22;52192;52.002;5.956;2023-07-13T09:21:17;21.30;69.80
39045;DHT22;52192;52.002;5.956;2023-07-13T09:23:44;21.70;68.70
39045;DHT22;52192;52.002;5.956;2023-07-13T09:26:21;21.80;68.40
39045;DHT22;52192;52.002;5.956;2023-07-13T09:28:53;21.90;67.90
39045;DHT22;52192;52.002;5.956;2023-07-13T09:31:24;22.10;67.20
39045;DHT22;52192;52.002;5.956;2023-07-13T09:33:51;22.30;67.20
39045;DHT22;52192;52.002;5.956;2023-07-13T09:36:33;22.50;65.80
39045;DHT22;52192;52.002;5.956;2023-07-13T09:42:12;22.40;65.60
39045;DHT22;52192;52.002;5.956;2023-07-13T09:44:59;22.20;65.50
39045;DHT22;52192;52.002;5.956;2023-07-13T09:47:28;21.70;67.10
39045;DHT22;52192;52.002;5.956;2023-07-13T09:50:07;21.30;69.10
39045;DHT22;52192;52.002;5.956;2023-07-13T09:57:51;20.90;70.60
39045;DHT22;52192;52.002;5.956;2023-07-13T10:00:37;20.90;70.50
39045;DHT22;52192;52.002;5.956;2023-07-13T10:05:40;21.10;70.50
39045;DHT22;52192;52.002;5.956;2023-07-13T10:08:36;21.10;70.50
39045;DHT22;52192;52.002;5.956;2023-07-13T10:11:14;21.10;70.60
39045;DHT22;52192;52.002;5.956;2023-07-13T10:13:53;21.00;71.20
39045;DHT22;52192;52.002;5.956;2023-07-13T10:16:21;21.00;71.40
39045;DHT22;52192;52.002;5.956;2023-07-13T10:18:48;21.10;71.20
39045;DHT22;52192;52.002;5.956;2023-07-13T10:21:20;21.30;71.20
39045;DHT22;52192;52.002;5.956;2023-07-13T10:23:47;21.60;70.60
39045;DHT22;52192;52.002;5.956;2023-07-13T10:26:21;21.80;71.10
39045;DHT22;52192;52.002;5.956;2023-07-13T10:28:56;22.00;68.30
39045;DHT22;52192;52.002;5.956;2023-07-13T10:31:22;22.20;67.50
39045;DHT22;52192;52.002;5.956;2023-07-13T10:33:49;22.30;67.40
39045;DHT22;52192;52.002;5.956;2023-07-13T10:36:23;22.60;67.30
39045;DHT22;52192;52.002;5.956;2023-07-13T10:38:53;22.90;67.10
39045;DHT22;52192;52.002;5.956;2023-07-13T10:41:21;23.20;66.00
39045;DHT22;52192;52.002;5.956;2023-07-13T10:43:52;23.30;64.90
39045;DHT22;52192;52.002;5.956;2023-07-13T10:46:23;23.00;64.30
39045;DHT22;52192;52.002;5.956;2023-07-13T10:49:06;22.90;64.80
39045;DHT22;52192;52.002;5.956;2023-07-13T10:51:32;22.90;64.40
39045;DHT22;52192;52.002;5.956;2023-07-13T10:54:16;22.90;64.40
39045;DHT22;52192;52.002;5.956;2023-07-13T10:56:45;22.80;63.70
39045;DHT22;52192;52.002;5.956;2023-07-13T10:59:15;22.40;64.30
39045;DHT22;52192;52.002;5.956;2023-07-13T11:02:04;22.20;66.10
39045;DHT22;52192;52.002;5.956;2023-07-13T11:04:46;22.10;68.10
39045;DHT22;52192;52.002;5.956;2023-07-13T11:09:52;22.80;67.90
39045;DHT22;52192;52.002;5.956;2023-07-13T11:12:28;23.20;67.00
39045;DHT22;52192;52.002;5.956;2023-07-13T11:15:13;23.40;66.40
39045;DHT22;52192;52.002;5.956;2023-07-13T11:17:53;23.50;66.20
39045;DHT22;52192;52.002;5.956;2023-07-13T11:20:52;23.60;66.10
39045;DHT22;52192;52.002;5.956;2023-07-13T11:23:19;23.60;65.80
39045;DHT22;52192;52.002;5.956;2023-07-13T11:25:45;23.50;65.50
39045;DHT22;52192;52.002;5.956;2023-07-13T11:36:19;22.90;66.90
39045;DHT22;52192;52.002;5.956;2023-07-13T11:41:43;23.20;68.90
39045;DHT22;52192;52.002;5.956;2023-07-13T11:44:13;23.30;68.30
39045;DHT22;52192;52.002;5.956;2023-07-13T11:46:45;23.40;68.50
39045;DHT22;52192;52.002;5.956;2023-07-13T11:49:16;23.70;68.10
39045;DHT22;52192;52.002;5.956;2023-07-13T11:51:42;23.70;67.40
39045;DHT22;52192;52.002;5.956;2023-07-13T11:54:33;23.70;67.00
39045;DHT22;52192;52.002;5.956;2023-07-13T11:57:13;23.90;66.70
39045;DHT22;52192;52.002;5.956;2023-07-13T11:59:43;23.90;65.60
39045;DHT22;52192;52.002;5.956;2023-07-13T12:02:20;23.90;65.00
39045;DHT22;52192;52.002;5.956;2023-07-13T12:04:50;24.00;64.00
39045;DHT22;52192;52.002;5.956;2023-07-13T12:07:19;23.80;63.70
39045;DHT22;52192;52.002;5.956;2023-07-13T12:09:45;23.60;62.20
39045;DHT22;52192;52.002;5.956;2023-07-13T12:12:13;23.50;63.30
39045;DHT22;52192;52.002;5.956;2023-07-13T12:14:39;23.40;63.30
39045;DHT22;52192;52.002;5.956;2023-07-13T12:17:27;23.20;62.20
39045;DHT22;52192;52.002;5.956;2023-07-13T12:19:53;23.10;62.80
39045;DHT22;52192;52.002;5.956;2023-07-13T12:22:20;22.90;62.30
39045;DHT22;52192;52.002;5.956;2023-07-13T12:24:46;22.90;62.60
39045;DHT22;52192;52.002;5.956;2023-07-13T12:27:25;23.00;63.10
39045;DHT22;52192;52.002;5.956;2023-07-13T12:30:04;23.40;62.80
39045;DHT22;52192;52.002;5.956;2023-07-13T12:32:31;23.90;61.80
39045;DHT22;52192;52.002;5.956;2023-07-13T12:35:15;24.40;61.10
39045;DHT22;52192;52.002;5.956;2023-07-13T12:37:43;24.90;60.30
39045;DHT22;52192;52.002;5.956;2023-07-13T12:40:16;25.10;60.00
39045;DHT22;52192;52.002;5.956;2023-07-13T12:42:46;25.10;59.60
39045;DHT22;52192;52.002;5.956;2023-07-13T12:45:18;25.00;58.90
39045;DHT22;52192;52.002;5.956;2023-07-13T12:47:48;24.80;59.70
39045;DHT22;52192;52.002;5.956;2023-07-13T12:50:20;24.50;60.30
39045;DHT22;52192;52.002;5.956;2023-07-13T12:52:52;24.30;59.60
39045;DHT22;52192;52.002;5.956;2023-07-13T12:55:20;23.90;60.90
39045;DHT22;52192;52.002;5.956;2023-07-13T13:00:31;23.40;62.30
39045;DHT22;52192;52.002;5.956;2023-07-13T13:03:30;23.20;62.90
39045;DHT22;52192;52.002;5.956;2023-07-13T13:06:19;23.00;63.50
39045;DHT22;52192;52.002;5.956;2023-07-13T13:08:47;22.80;63.90
39045;DHT22;52192;52.002;5.956;2023-07-13T13:11:14;22.80;63.60
39045;DHT22;52192;52.002;5.956;2023-07-13T13:13:42;22.80;63.40
39045;DHT22;52192;52.002;5.956;2023-07-13T13:16:22;22.80;63.00
39045;DHT22;52192;52.002;5.956;2023-07-13T13:18:50;23.20;62.50
39045;DHT22;52192;52.002;5.956;2023-07-13T13:21:17;23.70;61.90
39045;DHT22;52192;52.002;5.956;2023-07-13T13:23:43;24.20;61.00
39045;DHT22;52192;52.002;5.956;2023-07-13T13:26:13;24.50;60.60
39045;DHT22;52192;52.002;5.956;2023-07-13T13:28:40;24.60;60.00
39045;DHT22;52192;52.002;5.956;2023-07-13T13:31:08;24.50;60.10
39045;DHT22;52192;52.002;5.956;2023-07-13T13:33:38;24.80;60.30
39045;DHT22;52192;52.002;5.956;2023-07-13T13:36:17;25.10;59.80
39045;DHT22;52192;52.002;5.956;2023-07-13T13:38:43;25.40;59.10
39045;DHT22;52192;52.002;5.956;2023-07-13T13:41:11;25.40;58.90
39045;DHT22;52192;52.002;5.956;2023-07-13T13:43:39;25.20;58.80
39045;DHT22;52192;52.002;5.956;2023-07-13T13:46:17;24.90;59.00
39045;DHT22;52192;52.002;5.956;2023-07-13T13:48:44;24.70;59.90
39045;DHT22;52192;52.002;5.956;2023-07-13T13:51:21;24.90;59.90
39045;DHT22;52192;52.002;5.956;2023-07-13T13:53:48;25.20;59.10
39045;DHT22;52192;52.002;5.956;2023-07-13T13:56:18;25.40;59.00
39045;DHT22;52192;52.002;5.956;2023-07-13T13:58:43;25.60;58.10
39045;DHT22;52192;52.002;5.956;2023-07-13T14:01:17;25.70;58.10
39045;DHT22;52192;52.002;5.956;2023-07-13T14:03:43;26.00;58.00
39045;DHT22;52192;52.002;5.956;2023-07-13T14:06:12;26.30;57.10
39045;DHT22;52192;52.002;5.956;2023-07-13T14:08:39;26.40;56.10
39045;DHT22;52192;52.002;5.956;2023-07-13T14:11:05;26.40;56.70
39045;DHT22;52192;52.002;5.956;2023-07-13T14:13:36;26.40;56.40
39045;DHT22;52192;52.002;5.956;2023-07-13T14:16:04;26.50;56.30
39045;DHT22;52192;52.002;5.956;2023-07-13T14:18:30;26.70;55.50
39045;DHT22;52192;52.002;5.956;2023-07-13T14:20:56;26.60;52.90
39045;DHT22;52192;52.002;5.956;2023-07-13T14:23:22;26.40;52.60
39045;DHT22;52192;52.002;5.956;2023-07-13T14:25:48;26.10;51.00
39045;DHT22;52192;52.002;5.956;2023-07-13T14:28:23;25.90;50.50
39045;DHT22;52192;52.002;5.956;2023-07-13T14:30:50;25.70;51.60
39045;DHT22;52192;52.002;5.956;2023-07-13T14:33:16;25.60;51.80
39045;DHT22;52192;52.002;5.956;2023-07-13T14:35:42;25.70;52.20
39045;DHT22;52192;52.002;5.956;2023-07-13T14:38:19;26.10;51.80
39045;DHT22;52192;52.002;5.956;2023-07-13T14:40:45;26.10;49.60
39045;DHT22;52192;52.002;5.956;2023-07-13T14:43:13;25.90;50.20
39045;DHT22;52192;52.002;5.956;2023-07-13T14:45:41;25.80;50.60
39045;DHT22;52192;52.002;5.956;2023-07-13T14:48:21;25.60;50.80
39045;DHT22;52192;52.002;5.956;2023-07-13T14:50:54;25.50;51.00
39045;DHT22;52192;52.002;5.956;2023-07-13T14:53:20;25.30;51.00
39045;DHT22;52192;52.002;5.956;2023-07-13T14:55:46;25.30;51.40
39045;DHT22;52192;52.002;5.956;2023-07-13T14:58:12;25.10;51.20
39045;DHT22;52192;52.002;5.956;2023-07-13T15:00:40;25.00;52.00
39045;DHT22;52192;52.002;5.956;2023-07-13T15:03:17;25.00;52.00
39045;DHT22;52192;52.002;5.956;2023-07-13T15:05:45;24.90;51.60
39045;DHT22;52192;52.002;5.956;2023-07-13T15:08:11;24.80;51.60
39045;DHT22;52192;52.002;5.956;2023-07-13T15:10:37;24.70;51.70
39045;DHT22;52192;52.002;5.956;2023-07-13T15:13:19;24.70;51.90
39045;DHT22;52192;52.002;5.956;2023-07-13T15:15:51;24.70;51.70
39045;DHT22;52192;52.002;5.956;2023-07-13T15:18:19;24.70;51.40
39045;DHT22;52192;52.002;5.956;2023-07-13T15:20:47;24.70;51.60
39045;DHT22;52192;52.002;5.956;2023-07-13T15:23:15;24.70;51.60
39045;DHT22;52192;52.002;5.956;2023-07-13T15:25:42;24.80;51.50
39045;DHT22;52192;52.002;5.956;2023-07-13T15:28:09;24.70;51.70
39045;DHT22;52192;52.002;5.956;2023-07-13T15:30:46;24.70;51.80
39045;DHT22;52192;52.002;5.956;2023-07-13T15:33:27;24.60;52.10
39045;DHT22;52192;52.002;5.956;2023-07-13T15:35:55;24.50;52.30
39045;DHT22;52192;52.002;5.956;2023-07-13T15:38:27;24.40;52.40
39045;DHT22;52192;52.002;5.956;2023-07-13T15:40:54;24.40;52.60
39045;DHT22;52192;52.002;5.956;2023-07-13T15:43:20;24.40;52.60
39045;DHT22;52192;52.002;5.956;2023-07-13T15:45:47;24.30;52.60
39045;DHT22;52192;52.002;5.956;2023-07-13T15:48:14;24.20;53.10
39045;DHT22;52192;52.002;5.956;2023-07-13T15:50:50;24.20;53.30
39045;DHT22;52192;52.002;5.956;2023-07-13T15:53:26;24.20;53.40
39045;DHT22;52192;52.002;5.956;2023-07-13T15:55:53;24.20;53.30
39045;DHT22;52192;52.002;5.956;2023-07-13T15:58:19;24.20;53.30
39045;DHT22;52192;52.002;5.956;2023-07-13T16:00:45;24.10;52.80
39045;DHT22;52192;52.002;5.956;2023-07-13T16:03:11;24.10;53.30
39045;DHT22;52192;52.002;5.956;2023-07-13T16:05:37;24.30;53.40
39045;DHT22;52192;52.002;5.956;2023-07-13T16:08:05;24.40;53.00
39045;DHT22;52192;52.002;5.956;2023-07-13T16:10:37;24.40;52.70
39045;DHT22;52192;52.002;5.956;2023-07-13T16:13:24;24.50;53.10
39045;DHT22;52192;52.002;5.956;2023-07-13T16:15:51;24.70;53.60
39045;DHT22;52192;52.002;5.956;2023-07-13T16:18:17;24.70;53.70
39045;DHT22;52192;52.002;5.956;2023-07-13T16:20:45;24.90;53.90
39045;DHT22;52192;52.002;5.956;2023-07-13T16:23:13;24.90;53.80